Time,TemperatureF,DewpointF,PressureIn,WindDirection,WindDirectionDegrees,WindSpeedMPH,WindSpeedGustMPH,Humidity,HourlyPrecipIn,Conditions,Clouds,dailyrainin,SoftwareType,DateUTC
2013-06-02 00:02:00,67.8,65.4,29.72,SW,234,0.0,0.0,92,0.31,,,0.01,WeatherCatV1.15B25,2013-06-02 04:02:00,
2013-06-02 00:04:00,67.8,65.4,29.71,SW,234,0.0,0.0,92,2.18,,,0.05,WeatherCatV1.15B25,2013-06-02 04:04:00,
2013-06-02 00:05:00,67.8,65.4,29.71,SW,234,0.0,0.0,92,0.51,,,0.05,WeatherCatV1.15B25,2013-06-02 04:05:00,
2013-06-02 00:07:00,67.8,65.4,29.72,SW,234,0.0,0.0,92,2.68,,,0.09,WeatherCatV1.15B25,2013-06-02 04:07:00,
2013-06-02 00:09:00,67.9,65.5,29.72,SW,234,0.0,0.0,92,0.51,,,0.12,WeatherCatV1.15B25,2013-06-02 04:09:00,
2013-06-02 00:14:00,67.9,65.5,29.71,SW,234,0.0,0.0,92,0.13,,,0.13,WeatherCatV1.15B25,2013-06-02 04:14:00,
2013-06-02 00:19:00,67.9,65.5,29.70,SW,234,0.0,0.0,92,0.06,,,0.13,WeatherCatV1.15B25,2013-06-02 04:19:00,
2013-06-02 00:24:00,67.8,65.4,29.70,SW,234,0.0,0.0,92,0.04,,,0.13,WeatherCatV1.15B25,2013-06-02 04:24:00,
2013-06-02 00:29:00,67.8,65.4,29.71,SW,234,0.0,0.0,92,0.00,,,0.13,WeatherCatV1.15B25,2013-06-02 04:29:00,
2013-06-02 00:34:00,67.7,65.3,29.70,SW,234,0.0,0.0,92,0.31,,,0.23,WeatherCatV1.15B25,2013-06-02 04:34:00,
2013-06-02 00:39:00,67.7,65.3,29.70,SW,235,0.0,0.0,92,0.13,,,0.24,WeatherCatV1.15B25,2013-06-02 04:39:00,
2013-06-02 00:44:00,67.7,65.3,29.68,NNE,30,2.0,3.0,92,0.12,,,0.25,WeatherCatV1.15B25,2013-06-02 04:44:00,
2013-06-02 00:49:00,67.7,65.3,29.69,NNE,13,2.0,2.0,92,0.06,,,0.25,WeatherCatV1.15B25,2013-06-02 04:49:00,
2013-06-02 00:54:00,67.7,65.3,29.72,SW,234,1.0,3.0,92,0.34,,,0.27,WeatherCatV1.15B25,2013-06-02 04:54:00,
2013-06-02 00:59:00,67.6,65.2,29.72,West,279,0.0,1.0,92,0.11,,,0.28,WeatherCatV1.15B25,2013-06-02 04:59:00,
2013-06-02 01:04:00,67.7,65.3,29.71,East,94,0.0,1.0,92,0.10,,,0.28,WeatherCatV1.15B25,2013-06-02 05:04:00,
2013-06-02 01:09:00,67.8,65.4,29.70,West,269,1.0,3.0,92,0.07,,,0.29,WeatherCatV1.15B25,2013-06-02 05:09:00,
2013-06-02 01:14:00,68.0,65.6,29.71,SW,235,0.0,0.0,92,0.12,,,0.30,WeatherCatV1.15B25,2013-06-02 05:14:00,
2013-06-02 01:19:00,68.0,65.6,29.72,SW,235,0.0,0.0,92,0.08,,,0.31,WeatherCatV1.15B25,2013-06-02 05:19:00,
2013-06-02 01:24:00,68.1,65.7,29.71,East,91,1.0,3.0,92,0.08,,,0.31,WeatherCatV1.15B25,2013-06-02 05:24:00,
2013-06-02 01:29:00,68.0,65.6,29.70,East,92,0.0,0.0,92,0.08,,,0.32,WeatherCatV1.15B25,2013-06-02 05:29:00,
2013-06-02 01:34:00,67.9,65.5,29.70,East,92,0.0,0.0,92,0.14,,,0.33,WeatherCatV1.15B25,2013-06-02 05:34:00,
2013-06-02 01:39:00,67.8,65.4,29.70,East,92,0.0,0.0,92,0.13,,,0.35,WeatherCatV1.15B25,2013-06-02 05:39:00,
2013-06-02 01:44:00,67.9,65.5,29.70,East,92,0.0,0.0,92,0.12,,,0.35,WeatherCatV1.15B25,2013-06-02 05:44:00,
2013-06-02 01:49:00,67.9,65.5,29.70,East,92,0.0,1.0,92,0.10,,,0.36,WeatherCatV1.15B25,2013-06-02 05:49:00,
2013-06-02 01:54:00,67.9,65.5,29.71,East,92,0.0,0.0,92,0.07,,,0.37,WeatherCatV1.15B25,2013-06-02 05:54:00,
2013-06-02 01:59:00,67.9,65.5,29.70,East,92,0.0,0.0,92,0.15,,,0.38,WeatherCatV1.15B25,2013-06-02 05:59:00,
2013-06-02 02:04:00,67.8,65.4,29.71,East,91,0.0,0.0,92,0.19,,,0.40,WeatherCatV1.15B25,2013-06-02 06:04:00,
2013-06-02 02:09:00,67.8,65.4,29.71,East,92,0.0,0.0,92,0.13,,,0.41,WeatherCatV1.15B25,2013-06-02 06:09:00,
2013-06-02 02:14:00,67.7,65.3,29.71,East,91,0.0,0.0,92,0.13,,,0.42,WeatherCatV1.15B25,2013-06-02 06:14:00,
2013-06-02 02:19:00,67.5,65.1,29.71,East,101,3.0,4.0,92,0.14,,,0.43,WeatherCatV1.15B25,2013-06-02 06:19:00,
2013-06-02 02:24:00,67.3,64.9,29.70,East,101,2.0,2.0,92,0.19,,,0.45,WeatherCatV1.15B25,2013-06-02 06:24:00,
2013-06-02 02:29:00,67.1,64.7,29.70,East,101,2.0,2.0,92,0.13,,,0.46,WeatherCatV1.15B25,2013-06-02 06:29:00,
2013-06-02 02:34:00,67.1,64.7,29.70,East,101,0.0,1.0,92,0.13,,,0.47,WeatherCatV1.15B25,2013-06-02 06:34:00,
2013-06-02 02:39:00,67.0,64.6,29.70,East,101,0.0,3.0,92,0.16,,,0.48,WeatherCatV1.15B25,2013-06-02 06:39:00,
2013-06-02 02:44:00,66.9,64.8,29.69,East,101,0.0,0.0,93,0.15,,,0.49,WeatherCatV1.15B25,2013-06-02 06:44:00,
2013-06-02 02:49:00,66.9,64.8,29.68,East,101,0.0,0.0,93,0.22,,,0.51,WeatherCatV1.15B25,2013-06-02 06:49:00,
2013-06-02 02:54:00,66.9,64.8,29.69,East,101,0.0,0.0,93,0.15,,,0.53,WeatherCatV1.15B25,2013-06-02 06:54:00,
2013-06-02 02:59:00,66.9,64.8,29.69,East,101,0.0,1.0,93,0.11,,,0.53,WeatherCatV1.15B25,2013-06-02 06:59:00,
2013-06-02 03:04:00,66.9,64.8,29.69,East,101,1.0,2.0,93,0.06,,,0.53,WeatherCatV1.15B25,2013-06-02 07:04:00,
2013-06-02 03:09:00,66.8,64.7,29.69,East,101,1.0,2.0,93,0.05,,,0.54,WeatherCatV1.15B25,2013-06-02 07:09:00,
2013-06-02 03:14:00,66.8,64.7,29.69,East,101,0.0,2.0,93,0.05,,,0.54,WeatherCatV1.15B25,2013-06-02 07:14:00,
2013-06-02 03:19:00,66.8,64.7,29.69,East,101,0.0,0.0,93,0.05,,,0.54,WeatherCatV1.15B25,2013-06-02 07:19:00,
2013-06-02 03:24:00,66.8,64.7,29.69,WSW,242,1.0,2.0,93,0.00,,,0.54,WeatherCatV1.15B25,2013-06-02 07:24:00,
2013-06-02 03:29:00,66.8,64.7,29.69,ESE,119,3.0,4.0,93,0.00,,,0.54,WeatherCatV1.15B25,2013-06-02 07:29:00,
2013-06-02 03:34:00,66.9,64.8,29.69,SSE,149,2.0,5.0,93,0.00,,,0.54,WeatherCatV1.15B25,2013-06-02 07:34:00,
2013-06-02 03:39:00,67.0,64.6,29.69,East,92,0.0,3.0,92,0.00,,,0.54,WeatherCatV1.15B25,2013-06-02 07:39:00,
2013-06-02 03:44:00,67.1,64.7,29.69,East,92,0.0,2.0,92,0.00,,,0.54,WeatherCatV1.15B25,2013-06-02 07:44:00,
2013-06-02 03:49:00,67.1,64.7,29.68,East,90,1.0,4.0,92,0.00,,,0.54,WeatherCatV1.15B25,2013-06-02 07:49:00,
2013-06-02 03:54:00,67.2,64.8,29.68,East,91,1.0,2.0,92,0.00,,,0.54,WeatherCatV1.15B25,2013-06-02 07:54:00,
2013-06-02 03:59:00,67.3,64.9,29.69,SSW,205,1.0,3.0,92,0.00,,,0.54,WeatherCatV1.15B25,2013-06-02 07:59:00,
2013-06-02 04:04:00,67.3,64.9,29.69,SSW,202,3.0,4.0,92,0.00,,,0.54,WeatherCatV1.15B25,2013-06-02 08:04:00,
2013-06-02 04:09:00,67.4,65.3,29.69,SSE,164,1.0,2.0,93,0.00,,,0.54,WeatherCatV1.15B25,2013-06-02 08:09:00,
2013-06-02 04:14:00,67.4,65.3,29.69,SE,144,2.0,3.0,93,0.00,,,0.54,WeatherCatV1.15B25,2013-06-02 08:14:00,
2013-06-02 04:19:00,67.4,65.3,29.69,ESE,123,3.0,4.0,93,0.00,,,0.54,WeatherCatV1.15B25,2013-06-02 08:19:00,
2013-06-02 04:24:00,67.4,65.3,29.69,SE,134,1.0,4.0,93,0.00,,,0.54,WeatherCatV1.15B25,2013-06-02 08:24:00,
2013-06-02 04:29:00,67.4,65.0,29.69,SE,125,2.0,2.0,92,0.00,,,0.54,WeatherCatV1.15B25,2013-06-02 08:29:00,
2013-06-02 04:34:00,67.3,64.9,29.69,SE,128,1.0,1.0,92,0.00,,,0.54,WeatherCatV1.15B25,2013-06-02 08:34:00,
2013-06-02 04:39:00,67.3,64.9,29.69,SE,138,1.0,3.0,92,0.00,,,0.54,WeatherCatV1.15B25,2013-06-02 08:39:00,
2013-06-02 04:44:00,67.4,65.0,29.69,ESE,113,1.0,3.0,92,0.00,,,0.54,WeatherCatV1.15B25,2013-06-02 08:44:00,
2013-06-02 04:49:00,67.3,64.9,29.69,ESE,113,1.0,2.0,92,0.00,,,0.54,WeatherCatV1.15B25,2013-06-02 08:49:00,
2013-06-02 04:54:00,67.3,64.9,29.69,SW,227,2.0,3.0,92,0.00,,,0.54,WeatherCatV1.15B25,2013-06-02 08:54:00,
2013-06-02 04:59:00,67.4,65.0,29.69,SE,132,0.0,1.0,92,0.00,,,0.54,WeatherCatV1.15B25,2013-06-02 08:59:00,
2013-06-02 05:04:00,67.3,65.2,29.69,SE,138,0.0,0.0,93,0.00,,,0.54,WeatherCatV1.15B25,2013-06-02 09:04:00,
2013-06-02 05:09:00,67.3,64.9,29.68,SE,138,0.0,0.0,92,0.00,,,0.54,WeatherCatV1.15B25,2013-06-02 09:09:00,
2013-06-02 05:14:00,67.3,64.9,29.69,SE,138,1.0,2.0,92,0.00,,,0.54,WeatherCatV1.15B25,2013-06-02 09:14:00,
2013-06-02 05:19:00,67.3,65.2,29.69,SE,138,0.0,2.0,93,0.00,,,0.54,WeatherCatV1.15B25,2013-06-02 09:19:00,
2013-06-02 05:24:00,67.3,64.9,29.69,SE,138,0.0,0.0,92,0.00,,,0.54,WeatherCatV1.15B25,2013-06-02 09:24:00,
2013-06-02 05:29:00,67.4,65.3,29.69,SE,138,0.0,1.0,93,0.00,,,0.54,WeatherCatV1.15B25,2013-06-02 09:29:00,
2013-06-02 05:34:00,67.4,65.3,29.69,SE,138,1.0,2.0,93,0.00,,,0.54,WeatherCatV1.15B25,2013-06-02 09:34:00,
2013-06-02 05:39:00,67.4,65.3,29.69,SE,138,0.0,2.0,93,0.00,,,0.54,WeatherCatV1.15B25,2013-06-02 09:39:00,
2013-06-02 05:44:00,67.5,65.4,29.69,SE,138,0.0,2.0,93,0.00,,,0.54,WeatherCatV1.15B25,2013-06-02 09:44:00,
2013-06-02 05:49:00,67.4,65.3,29.70,SE,138,0.0,0.0,93,0.00,,,0.54,WeatherCatV1.15B25,2013-06-02 09:49:00,
2013-06-02 05:54:00,67.4,65.3,29.70,SE,138,0.0,0.0,93,0.00,,,0.54,WeatherCatV1.15B25,2013-06-02 09:54:00,
2013-06-02 05:59:00,67.3,64.9,29.70,SE,138,0.0,0.0,92,0.00,,,0.54,WeatherCatV1.15B25,2013-06-02 09:59:00,
2013-06-02 06:04:00,67.3,64.9,29.70,SE,138,0.0,0.0,92,0.00,,,0.54,WeatherCatV1.15B25,2013-06-02 10:04:00,
2013-06-02 06:09:00,67.2,64.8,29.70,SE,138,0.0,0.0,92,0.00,,,0.54,WeatherCatV1.15B25,2013-06-02 10:09:00,
2013-06-02 06:14:00,67.3,64.9,29.70,SE,138,0.0,0.0,92,0.00,,,0.54,WeatherCatV1.15B25,2013-06-02 10:14:00,
2013-06-02 06:19:00,67.2,64.8,29.70,SE,138,0.0,0.0,92,0.00,,,0.54,WeatherCatV1.15B25,2013-06-02 10:19:00,
2013-06-02 06:24:00,67.2,64.8,29.70,ESE,114,0.0,2.0,92,0.00,,,0.54,WeatherCatV1.15B25,2013-06-02 10:24:00,
2013-06-02 06:29:00,67.2,64.8,29.70,ESE,114,0.0,2.0,92,0.00,,,0.54,WeatherCatV1.15B25,2013-06-02 10:29:00,
2013-06-02 06:34:00,67.1,64.7,29.70,ESE,114,0.0,2.0,92,0.00,,,0.54,WeatherCatV1.15B25,2013-06-02 10:34:00,
2013-06-02 06:39:00,67.1,64.7,29.70,ESE,114,0.0,0.0,92,0.00,,,0.54,WeatherCatV1.15B25,2013-06-02 10:39:00,
2013-06-02 06:44:00,67.0,64.6,29.70,ESE,114,1.0,2.0,92,0.00,,,0.54,WeatherCatV1.15B25,2013-06-02 10:44:00,
2013-06-02 06:49:00,67.0,64.6,29.70,SSE,168,1.0,3.0,92,0.00,,,0.54,WeatherCatV1.15B25,2013-06-02 10:49:00,
2013-06-02 06:54:00,67.0,64.6,29.70,SSE,168,0.0,0.0,92,0.00,,,0.54,WeatherCatV1.15B25,2013-06-02 10:54:00,
2013-06-02 06:59:00,67.0,64.6,29.70,SSE,168,1.0,3.0,92,0.00,,,0.54,WeatherCatV1.15B25,2013-06-02 10:59:00,
2013-06-02 07:04:00,67.0,64.6,29.71,SSE,168,0.0,0.0,92,0.00,,,0.54,WeatherCatV1.15B25,2013-06-02 11:04:00,
2013-06-02 07:09:00,66.9,64.5,29.71,SSE,168,1.0,2.0,92,0.00,,,0.54,WeatherCatV1.15B25,2013-06-02 11:09:00,
2013-06-02 07:14:00,66.9,64.5,29.71,SE,125,0.0,2.0,92,0.00,,,0.54,WeatherCatV1.15B25,2013-06-02 11:14:00,
2013-06-02 07:19:00,67.0,64.6,29.71,SE,125,0.0,0.0,92,0.00,,,0.54,WeatherCatV1.15B25,2013-06-02 11:19:00,
2013-06-02 07:24:00,67.1,64.7,29.71,SE,125,0.0,0.0,92,0.00,,,0.54,WeatherCatV1.15B25,2013-06-02 11:24:00,
2013-06-02 07:29:00,67.3,64.9,29.71,SE,130,3.0,3.0,92,0.00,,,0.54,WeatherCatV1.15B25,2013-06-02 11:29:00,
2013-06-02 07:34:00,67.5,65.1,29.71,SSW,200,0.0,1.0,92,0.00,,,0.54,WeatherCatV1.15B25,2013-06-02 11:34:00,
2013-06-02 07:39:00,67.7,65.3,29.71,SSW,198,2.0,4.0,92,0.00,,,0.54,WeatherCatV1.15B25,2013-06-02 11:39:00,
2013-06-02 07:44:00,68.0,65.6,29.72,SSW,198,2.0,3.0,92,0.00,,,0.54,WeatherCatV1.15B25,2013-06-02 11:44:00,
2013-06-02 07:49:00,68.3,65.6,29.72,SSW,198,2.0,4.0,91,0.00,,,0.54,WeatherCatV1.15B25,2013-06-02 11:49:00,
2013-06-02 07:54:00,68.6,65.9,29.72,South,189,4.0,9.0,91,0.00,,,0.54,WeatherCatV1.15B25,2013-06-02 11:54:00,
2013-06-02 07:59:00,68.8,66.1,29.72,South,189,0.0,1.0,91,0.00,,,0.54,WeatherCatV1.15B25,2013-06-02 11:59:00,
2013-06-02 08:04:00,69.0,66.3,29.72,South,189,0.0,0.0,91,0.00,,,0.54,WeatherCatV1.15B25,2013-06-02 12:04:00,
2013-06-02 08:09:00,69.5,66.4,29.72,SW,229,0.0,0.0,90,0.00,,,0.54,WeatherCatV1.15B25,2013-06-02 12:09:00,
2013-06-02 08:14:00,69.8,66.4,29.72,SSW,198,0.0,0.0,89,0.00,,,0.54,WeatherCatV1.15B25,2013-06-02 12:14:00,
2013-06-02 08:19:00,69.8,65.7,29.72,SSW,207,0.0,0.0,87,0.00,,,0.54,WeatherCatV1.15B25,2013-06-02 12:19:00,
2013-06-02 08:24:00,69.7,65.3,29.72,SW,221,0.0,0.0,86,0.00,,,0.54,WeatherCatV1.15B25,2013-06-02 12:24:00,
2013-06-02 08:29:00,69.6,64.9,29.73,SW,225,6.0,9.0,85,0.00,,,0.54,WeatherCatV1.15B25,2013-06-02 12:29:00,
2013-06-02 08:34:00,69.7,65.0,29.73,WSW,237,3.0,5.0,85,0.00,,,0.54,WeatherCatV1.15B25,2013-06-02 12:34:00,
2013-06-02 08:39:00,69.9,64.8,29.73,WSW,258,3.0,6.0,84,0.00,,,0.54,WeatherCatV1.15B25,2013-06-02 12:39:00,
2013-06-02 08:44:00,70.2,64.8,29.73,SSW,205,4.0,6.0,83,0.00,,,0.54,WeatherCatV1.15B25,2013-06-02 12:44:00,
2013-06-02 08:49:00,70.6,64.8,29.72,SW,224,4.0,4.0,82,0.00,,,0.54,WeatherCatV1.15B25,2013-06-02 12:49:00,
2013-06-02 08:54:00,70.8,64.7,29.73,SW,221,3.0,6.0,81,0.00,,,0.54,WeatherCatV1.15B25,2013-06-02 12:54:00,
2013-06-02 08:59:00,71.2,64.3,29.73,SSW,197,2.0,4.0,79,0.00,,,0.54,WeatherCatV1.15B25,2013-06-02 12:59:00,
2013-06-02 09:04:00,71.6,64.4,29.73,SSW,206,5.0,6.0,78,0.00,,,0.54,WeatherCatV1.15B25,2013-06-02 13:04:00,
2013-06-02 09:09:00,71.7,64.1,29.73,West,274,2.0,8.0,77,0.00,,,0.54,WeatherCatV1.15B25,2013-06-02 13:09:00,
2013-06-02 09:14:00,71.9,63.9,29.73,SW,234,7.0,10.0,76,0.00,,,0.54,WeatherCatV1.15B25,2013-06-02 13:14:00,
2013-06-02 09:19:00,72.2,64.2,29.73,SW,232,5.0,5.0,76,0.00,,,0.54,WeatherCatV1.15B25,2013-06-02 13:19:00,
2013-06-02 09:24:00,72.4,64.0,29.73,SW,228,1.0,4.0,75,0.00,,,0.54,WeatherCatV1.15B25,2013-06-02 13:24:00,
2013-06-02 09:29:00,72.6,63.0,29.73,South,176,1.0,10.0,72,0.00,,,0.54,WeatherCatV1.15B25,2013-06-02 13:29:00,
2013-06-02 09:34:00,72.9,63.7,29.73,SSW,196,3.0,6.0,73,0.00,,,0.54,WeatherCatV1.15B25,2013-06-02 13:34:00,
2013-06-02 09:39:00,73.1,63.5,29.73,West,267,3.0,3.0,72,0.00,,,0.54,WeatherCatV1.15B25,2013-06-02 13:39:00,
2013-06-02 09:44:00,73.4,63.0,29.73,WSW,254,4.0,4.0,70,0.00,,,0.54,WeatherCatV1.15B25,2013-06-02 13:44:00,
2013-06-02 09:49:00,73.3,62.1,29.73,SSW,195,7.0,13.0,68,0.00,,,0.54,WeatherCatV1.15B25,2013-06-02 13:49:00,
2013-06-02 09:54:00,73.1,61.5,29.73,South,185,2.0,9.0,67,0.00,,,0.54,WeatherCatV1.15B25,2013-06-02 13:54:00,
2013-06-02 09:59:00,73.1,60.2,29.73,SSW,204,4.0,14.0,64,0.00,,,0.54,WeatherCatV1.15B25,2013-06-02 13:59:00,
2013-06-02 10:04:00,73.0,61.4,29.73,SW,214,2.0,7.0,67,0.00,,,0.54,WeatherCatV1.15B25,2013-06-02 14:04:00,
2013-06-02 10:09:00,73.2,61.6,29.73,SW,225,5.0,7.0,67,0.00,,,0.54,WeatherCatV1.15B25,2013-06-02 14:09:00,
2013-06-02 10:14:00,73.1,61.0,29.73,SSE,168,5.0,9.0,66,0.00,,,0.54,WeatherCatV1.15B25,2013-06-02 14:14:00,
2013-06-02 10:19:00,73.7,60.7,29.73,SSW,196,7.0,9.0,64,0.00,,,0.54,WeatherCatV1.15B25,2013-06-02 14:19:00,
2013-06-02 10:25:00,73.8,59.9,29.73,SW,221,7.0,11.0,62,0.00,,,0.54,WeatherCatV1.15B25,2013-06-02 14:25:00,
2013-06-02 10:30:00,73.7,59.9,29.74,SSW,209,4.0,9.0,62,0.00,,,0.54,WeatherCatV1.15B25,2013-06-02 14:30:00,
2013-06-02 10:35:00,74.0,61.0,29.74,West,265,4.0,5.0,64,0.00,,,0.54,WeatherCatV1.15B25,2013-06-02 14:35:00,
2013-06-02 10:40:00,72.9,60.9,29.74,West,267,4.0,9.0,66,0.00,,,0.54,WeatherCatV1.15B25,2013-06-02 14:40:00,
2013-06-02 10:45:00,73.2,61.6,29.74,West,264,4.0,9.0,67,0.00,,,0.54,WeatherCatV1.15B25,2013-06-02 14:45:00,
2013-06-02 10:50:00,72.5,62.1,29.74,West,265,6.0,14.0,70,0.00,,,0.54,WeatherCatV1.15B25,2013-06-02 14:50:00,
2013-06-02 10:55:00,71.3,61.4,29.75,SW,227,10.0,10.0,71,0.00,,,0.54,WeatherCatV1.15B25,2013-06-02 14:55:00,
2013-06-02 11:00:00,70.7,62.4,29.76,WSW,241,5.0,16.0,75,0.00,,,0.54,WeatherCatV1.15B25,2013-06-02 15:00:00,
2013-06-02 11:05:00,70.4,61.7,29.76,WSW,242,5.0,9.0,74,0.00,,,0.54,WeatherCatV1.15B25,2013-06-02 15:05:00,
2013-06-02 11:10:00,70.5,62.6,29.76,SW,218,11.0,14.0,76,0.00,,,0.54,WeatherCatV1.15B25,2013-06-02 15:10:00,
2013-06-02 11:15:00,70.4,62.5,29.76,SW,235,6.0,8.0,76,0.00,,,0.54,WeatherCatV1.15B25,2013-06-02 15:15:00,
2013-06-02 11:20:00,70.4,62.5,29.76,SW,218,11.0,11.0,76,0.00,,,0.54,WeatherCatV1.15B25,2013-06-02 15:20:00,
2013-06-02 11:25:00,70.0,62.1,29.76,SW,236,5.0,9.0,76,0.00,,,0.54,WeatherCatV1.15B25,2013-06-02 15:25:00,
2013-06-02 11:30:00,69.9,61.6,29.76,SW,229,11.0,13.0,75,0.00,,,0.54,WeatherCatV1.15B25,2013-06-02 15:30:00,
2013-06-02 11:35:00,69.8,62.3,29.77,West,272,5.0,6.0,77,0.00,,,0.54,WeatherCatV1.15B25,2013-06-02 15:35:00,
2013-06-02 11:40:00,69.6,62.1,29.77,WNW,286,6.0,8.0,77,0.00,,,0.54,WeatherCatV1.15B25,2013-06-02 15:40:00,
2013-06-02 11:45:00,69.9,62.0,29.77,West,265,6.0,11.0,76,0.00,,,0.54,WeatherCatV1.15B25,2013-06-02 15:45:00,
2013-06-02 11:50:00,70.0,61.7,29.77,West,267,5.0,11.0,75,0.00,,,0.54,WeatherCatV1.15B25,2013-06-02 15:50:00,
2013-06-02 11:55:00,70.5,62.2,29.77,West,271,4.0,9.0,75,0.00,,,0.54,WeatherCatV1.15B25,2013-06-02 15:55:00,
2013-06-02 12:00:00,71.0,61.9,29.77,WNW,283,4.0,8.0,73,0.00,,,0.54,WeatherCatV1.15B25,2013-06-02 16:00:00,
2013-06-02 12:05:00,71.3,62.6,29.77,West,267,5.0,9.0,74,0.00,,,0.54,WeatherCatV1.15B25,2013-06-02 16:05:00,
2013-06-02 12:10:00,71.3,61.8,29.77,SW,233,9.0,15.0,72,0.00,,,0.54,WeatherCatV1.15B25,2013-06-02 16:10:00,
2013-06-02 12:15:00,71.0,61.5,29.77,WSW,242,4.0,10.0,72,0.00,,,0.54,WeatherCatV1.15B25,2013-06-02 16:15:00,
2013-06-02 12:20:00,70.9,61.0,29.77,West,259,7.0,10.0,71,0.00,,,0.54,WeatherCatV1.15B25,2013-06-02 16:20:00,
2013-06-02 12:25:00,71.3,61.4,29.77,WSW,240,4.0,11.0,71,0.00,,,0.54,WeatherCatV1.15B25,2013-06-02 16:25:00,
2013-06-02 12:30:00,71.5,61.6,29.77,NW,318,4.0,10.0,71,0.00,,,0.54,WeatherCatV1.15B25,2013-06-02 16:30:00,
2013-06-02 12:35:00,71.3,61.8,29.78,SW,229,10.0,11.0,72,0.00,,,0.54,WeatherCatV1.15B25,2013-06-02 16:35:00,
2013-06-02 12:41:00,71.2,60.9,29.78,West,270,5.0,7.0,70,0.00,,,0.54,WeatherCatV1.15B25,2013-06-02 16:41:00,
2013-06-02 12:46:00,71.4,60.3,29.78,WSW,250,6.0,13.0,68,0.00,,,0.54,WeatherCatV1.15B25,2013-06-02 16:46:00,
2013-06-02 12:51:00,71.6,61.3,29.78,WNW,282,10.0,13.0,70,0.00,,,0.54,WeatherCatV1.15B25,2013-06-02 16:51:00,
2013-06-02 12:56:00,71.3,60.6,29.78,West,263,6.0,11.0,69,0.00,,,0.54,WeatherCatV1.15B25,2013-06-02 16:56:00,
2013-06-02 13:01:00,71.3,60.2,29.78,WNW,284,7.0,10.0,68,0.00,,,0.54,WeatherCatV1.15B25,2013-06-02 17:01:00,
2013-06-02 13:06:00,71.7,60.6,29.78,SW,230,4.0,8.0,68,0.00,,,0.54,WeatherCatV1.15B25,2013-06-02 17:06:00,
2013-06-02 13:11:00,72.0,60.8,29.78,West,262,5.0,11.0,68,0.00,,,0.54,WeatherCatV1.15B25,2013-06-02 17:11:00,
2013-06-02 13:16:00,71.9,61.2,29.78,WNW,287,9.0,9.0,69,0.00,,,0.54,WeatherCatV1.15B25,2013-06-02 17:16:00,
2013-06-02 13:21:00,71.7,60.1,29.78,WSW,245,6.0,18.0,67,0.00,,,0.54,WeatherCatV1.15B25,2013-06-02 17:21:00,
2013-06-02 13:26:00,71.4,61.1,29.79,SW,225,6.0,16.0,70,0.00,,,0.54,WeatherCatV1.15B25,2013-06-02 17:26:00,
2013-06-02 13:31:00,72.0,60.8,29.79,SW,229,4.0,15.0,68,0.00,,,0.54,WeatherCatV1.15B25,2013-06-02 17:31:00,
2013-06-02 13:36:00,72.2,60.2,29.79,SW,229,9.0,16.0,66,0.00,,,0.54,WeatherCatV1.15B25,2013-06-02 17:36:00,
2013-06-02 13:41:00,72.6,58.8,29.79,West,269,5.0,13.0,62,0.00,,,0.54,WeatherCatV1.15B25,2013-06-02 17:41:00,
2013-06-02 13:46:00,73.1,61.0,29.79,West,259,2.0,6.0,66,0.00,,,0.54,WeatherCatV1.15B25,2013-06-02 17:46:00,
2013-06-02 13:51:00,74.1,61.6,29.79,West,272,10.0,11.0,65,0.00,,,0.54,WeatherCatV1.15B25,2013-06-02 17:51:00,
2013-06-02 13:56:00,73.4,59.6,29.79,West,274,7.0,12.0,62,0.00,,,0.54,WeatherCatV1.15B25,2013-06-02 17:56:00,
2013-06-02 14:01:00,72.7,58.5,29.79,WSW,250,6.0,14.0,61,0.00,,,0.54,WeatherCatV1.15B25,2013-06-02 18:01:00,
2013-06-02 14:06:00,72.9,60.4,29.79,WSW,238,5.0,7.0,65,0.00,,,0.54,WeatherCatV1.15B25,2013-06-02 18:06:00,
2013-06-02 14:11:00,73.2,60.7,29.79,SW,228,7.0,11.0,65,0.00,,,0.54,WeatherCatV1.15B25,2013-06-02 18:11:00,
2013-06-02 14:16:00,73.1,59.7,29.79,WSW,241,10.0,12.0,63,0.00,,,0.54,WeatherCatV1.15B25,2013-06-02 18:16:00,
2013-06-02 14:21:00,72.5,58.7,29.79,SW,218,6.0,15.0,62,0.00,,,0.54,WeatherCatV1.15B25,2013-06-02 18:21:00,
2013-06-02 14:26:00,72.9,59.1,29.79,West,259,7.0,12.0,62,0.00,,,0.54,WeatherCatV1.15B25,2013-06-02 18:26:00,
2013-06-02 14:31:00,73.6,59.8,29.80,SW,221,7.0,13.0,62,0.00,,,0.54,WeatherCatV1.15B25,2013-06-02 18:31:00,
2013-06-02 14:36:00,73.2,58.9,29.80,SSW,210,4.0,11.0,61,0.00,,,0.54,WeatherCatV1.15B25,2013-06-02 18:36:00,
2013-06-02 14:41:00,73.1,59.3,29.80,SW,226,10.0,11.0,62,0.00,,,0.54,WeatherCatV1.15B25,2013-06-02 18:41:00,
2013-06-02 14:46:00,72.8,59.5,29.80,WNW,296,4.0,10.0,63,0.00,,,0.54,WeatherCatV1.15B25,2013-06-02 18:46:00,
2013-06-02 14:51:00,72.7,58.5,29.80,WSW,238,9.0,14.0,61,0.00,,,0.54,WeatherCatV1.15B25,2013-06-02 18:51:00,
2013-06-02 14:56:00,72.9,59.1,29.80,SW,217,6.0,12.0,62,0.00,,,0.54,WeatherCatV1.15B25,2013-06-02 18:56:00,
2013-06-02 15:01:00,73.1,60.2,29.80,WSW,256,6.0,16.0,64,0.00,,,0.54,WeatherCatV1.15B25,2013-06-02 19:01:00,
2013-06-02 15:06:00,73.2,59.8,29.80,West,281,3.0,10.0,63,0.00,,,0.54,WeatherCatV1.15B25,2013-06-02 19:06:00,
2013-06-02 15:11:00,73.0,59.2,29.80,WSW,237,6.0,17.0,62,0.00,,,0.54,WeatherCatV1.15B25,2013-06-02 19:11:00,
2013-06-02 15:16:00,73.5,58.7,29.80,WSW,246,4.0,14.0,60,0.00,,,0.54,WeatherCatV1.15B25,2013-06-02 19:16:00,
2013-06-02 15:21:00,73.5,58.7,29.80,WSW,246,13.0,16.0,60,0.00,,,0.54,WeatherCatV1.15B25,2013-06-02 19:21:00,
2013-06-02 15:26:00,73.8,58.6,29.79,West,268,4.0,10.0,59,0.00,,,0.54,WeatherCatV1.15B25,2013-06-02 19:26:00,
2013-06-02 15:31:00,74.2,58.9,29.80,WSW,238,10.0,14.0,59,0.00,,,0.54,WeatherCatV1.15B25,2013-06-02 19:31:00,
2013-06-02 15:36:00,74.0,59.2,29.80,SW,231,6.0,13.0,60,0.00,,,0.54,WeatherCatV1.15B25,2013-06-02 19:36:00,
2013-06-02 15:41:00,73.9,60.0,29.80,West,259,9.0,10.0,62,0.00,,,0.54,WeatherCatV1.15B25,2013-06-02 19:41:00,
2013-06-02 15:46:00,73.8,59.9,29.80,West,281,5.0,6.0,62,0.00,,,0.54,WeatherCatV1.15B25,2013-06-02 19:46:00,
2013-06-02 15:51:00,73.7,60.3,29.80,West,263,5.0,6.0,63,0.00,,,0.54,WeatherCatV1.15B25,2013-06-02 19:51:00,
2013-06-02 15:56:00,73.4,61.3,29.80,SW,228,5.0,7.0,66,0.00,,,0.54,WeatherCatV1.15B25,2013-06-02 19:56:00,
2013-06-02 16:01:00,73.2,59.8,29.80,WSW,256,6.0,14.0,63,0.00,,,0.54,WeatherCatV1.15B25,2013-06-02 20:01:00,
2013-06-02 16:06:00,72.9,60.4,29.80,SW,217,5.0,11.0,65,0.00,,,0.54,WeatherCatV1.15B25,2013-06-02 20:06:00,
2013-06-02 16:11:00,73.0,60.1,29.80,SW,228,6.0,9.0,64,0.00,,,0.54,WeatherCatV1.15B25,2013-06-02 20:11:00,
2013-06-02 16:16:00,73.0,60.5,29.80,WNW,296,4.0,10.0,65,0.00,,,0.54,WeatherCatV1.15B25,2013-06-02 20:16:00,
2013-06-02 16:21:00,72.4,61.2,29.80,WSW,249,10.0,10.0,68,0.00,,,0.54,WeatherCatV1.15B25,2013-06-02 20:21:00,
2013-06-02 16:26:00,72.3,60.3,29.80,SW,225,6.0,13.0,66,0.00,,,0.54,WeatherCatV1.15B25,2013-06-02 20:26:00,
2013-06-02 16:31:00,72.4,60.8,29.80,West,271,10.0,11.0,67,0.00,,,0.54,WeatherCatV1.15B25,2013-06-02 20:31:00,
2013-06-02 16:36:00,71.9,59.9,29.80,West,267,6.0,11.0,66,0.00,,,0.54,WeatherCatV1.15B25,2013-06-02 20:36:00,
2013-06-02 16:41:00,71.7,60.6,29.80,West,265,2.0,10.0,68,0.00,,,0.54,WeatherCatV1.15B25,2013-06-02 20:41:00,
2013-06-02 16:46:00,72.1,60.9,29.80,SW,229,4.0,7.0,68,0.00,,,0.54,WeatherCatV1.15B25,2013-06-02 20:46:00,
2013-06-02 16:51:00,72.4,60.4,29.80,South,176,4.0,7.0,66,0.00,,,0.54,WeatherCatV1.15B25,2013-06-02 20:51:00,
2013-06-02 16:56:00,72.7,60.7,29.80,South,188,8.0,12.0,66,0.00,,,0.54,WeatherCatV1.15B25,2013-06-02 20:56:00,
2013-06-02 17:01:00,72.2,60.2,29.79,WSW,242,4.0,11.0,66,0.00,,,0.54,WeatherCatV1.15B25,2013-06-02 21:01:00,
2013-06-02 17:06:00,72.0,60.4,29.79,SW,225,5.0,13.0,67,0.00,,,0.54,WeatherCatV1.15B25,2013-06-02 21:06:00,
2013-06-02 17:11:00,71.5,60.4,29.80,WSW,248,5.0,6.0,68,0.00,,,0.54,WeatherCatV1.15B25,2013-06-02 21:11:00,
2013-06-02 17:16:00,71.5,60.0,29.80,SW,236,2.0,6.0,67,0.00,,,0.54,WeatherCatV1.15B25,2013-06-02 21:16:00,
2013-06-02 17:21:00,71.3,59.8,29.80,West,260,5.0,10.0,67,0.00,,,0.54,WeatherCatV1.15B25,2013-06-02 21:21:00,
2013-06-02 17:26:00,70.9,59.8,29.80,SW,233,9.0,11.0,68,0.00,,,0.54,WeatherCatV1.15B25,2013-06-02 21:26:00,
2013-06-02 17:31:00,70.5,59.8,29.80,SW,222,7.0,10.0,69,0.00,,,0.54,WeatherCatV1.15B25,2013-06-02 21:31:00,
2013-06-02 17:36:00,70.6,59.9,29.80,WSW,258,6.0,9.0,69,0.00,,,0.54,WeatherCatV1.15B25,2013-06-02 21:36:00,
2013-06-02 17:41:00,70.7,59.6,29.80,West,280,4.0,7.0,68,0.00,,,0.54,WeatherCatV1.15B25,2013-06-02 21:41:00,
2013-06-02 17:46:00,70.8,60.1,29.80,West,268,3.0,6.0,69,0.00,,,0.54,WeatherCatV1.15B25,2013-06-02 21:46:00,
2013-06-02 17:51:00,70.9,60.2,29.80,SW,232,2.0,7.0,69,0.00,,,0.54,WeatherCatV1.15B25,2013-06-02 21:51:00,
2013-06-02 17:56:00,70.9,60.2,29.80,WNW,288,5.0,12.0,69,0.00,,,0.54,WeatherCatV1.15B25,2013-06-02 21:56:00,
2013-06-02 18:01:00,71.1,60.4,29.80,WNW,290,0.0,7.0,69,0.00,,,0.54,WeatherCatV1.15B25,2013-06-02 22:01:00,
2013-06-02 18:06:00,70.9,59.8,29.80,West,269,5.0,6.0,68,0.00,,,0.54,WeatherCatV1.15B25,2013-06-02 22:06:00,
2013-06-02 18:11:00,70.7,60.4,29.80,West,265,5.0,7.0,70,0.00,,,0.54,WeatherCatV1.15B25,2013-06-02 22:11:00,
2013-06-02 18:16:00,70.4,59.7,29.80,SW,228,4.0,9.0,69,0.00,,,0.54,WeatherCatV1.15B25,2013-06-02 22:16:00,
2013-06-02 18:21:00,70.0,59.3,29.80,WSW,254,4.0,8.0,69,0.00,,,0.54,WeatherCatV1.15B25,2013-06-02 22:21:00,
2013-06-02 18:26:00,69.5,59.3,29.80,WSW,246,3.0,9.0,70,0.00,,,0.54,WeatherCatV1.15B25,2013-06-02 22:26:00,
2013-06-02 18:31:00,69.5,59.7,29.81,WSW,252,15.0,15.0,71,0.00,,,0.54,WeatherCatV1.15B25,2013-06-02 22:31:00,
2013-06-02 18:36:00,69.3,59.5,29.80,SW,215,3.0,16.0,71,0.00,,,0.54,WeatherCatV1.15B25,2013-06-02 22:36:00,
2013-06-02 18:41:00,69.2,59.8,29.80,WSW,245,9.0,9.0,72,0.00,,,0.54,WeatherCatV1.15B25,2013-06-02 22:41:00,
2013-06-02 18:46:00,69.1,59.3,29.80,WSW,242,4.0,9.0,71,0.00,,,0.54,WeatherCatV1.15B25,2013-06-02 22:46:00,
2013-06-02 18:51:00,69.0,59.6,29.81,SW,221,8.0,10.0,72,0.00,,,0.54,WeatherCatV1.15B25,2013-06-02 22:51:00,
2013-06-02 18:56:00,68.8,59.4,29.81,West,267,4.0,10.0,72,0.00,,,0.54,WeatherCatV1.15B25,2013-06-02 22:56:00,
2013-06-02 19:01:00,68.6,59.6,29.80,WSW,237,3.0,7.0,73,0.00,,,0.54,WeatherCatV1.15B25,2013-06-02 23:01:00,
2013-06-02 19:06:00,68.2,59.2,29.81,WSW,237,7.0,9.0,73,0.00,,,0.54,WeatherCatV1.15B25,2013-06-02 23:06:00,
2013-06-02 19:11:00,67.4,58.8,29.81,WSW,251,3.0,9.0,74,0.00,,,0.54,WeatherCatV1.15B25,2013-06-02 23:11:00,
2013-06-02 19:16:00,67.0,58.8,29.81,West,265,4.0,7.0,75,0.00,,,0.54,WeatherCatV1.15B25,2013-06-02 23:16:00,
2013-06-02 19:21:00,67.0,58.8,29.81,West,281,5.0,10.0,75,0.00,,,0.54,WeatherCatV1.15B25,2013-06-02 23:21:00,
2013-06-02 19:26:00,67.1,59.3,29.81,SW,236,3.0,9.0,76,0.00,,,0.54,WeatherCatV1.15B25,2013-06-02 23:26:00,
2013-06-02 19:31:00,67.1,59.3,29.81,WNW,298,0.0,6.0,76,0.00,,,0.54,WeatherCatV1.15B25,2013-06-02 23:31:00,
2013-06-02 19:36:00,66.8,59.0,29.81,WNW,294,3.0,5.0,76,0.00,,,0.54,WeatherCatV1.15B25,2013-06-02 23:36:00,
2013-06-02 19:41:00,66.7,59.3,29.81,SW,236,3.0,4.0,77,0.00,,,0.54,WeatherCatV1.15B25,2013-06-02 23:41:00,
2013-06-02 19:46:00,66.5,59.1,29.81,SW,217,3.0,6.0,77,0.00,,,0.54,WeatherCatV1.15B25,2013-06-02 23:46:00,
2013-06-02 19:51:00,66.4,59.0,29.81,SSW,200,7.0,7.0,77,0.00,,,0.54,WeatherCatV1.15B25,2013-06-02 23:51:00,
2013-06-02 19:56:00,66.2,58.8,29.82,West,259,2.0,9.0,77,0.00,,,0.54,WeatherCatV1.15B25,2013-06-02 23:56:00,
2013-06-02 20:01:00,66.2,58.8,29.82,WSW,257,3.0,7.0,77,0.00,,,0.54,WeatherCatV1.15B25,2013-06-03 00:01:00,
2013-06-02 20:06:00,66.0,58.9,29.82,West,265,0.0,6.0,78,0.00,,,0.54,WeatherCatV1.15B25,2013-06-03 00:06:00,
2013-06-02 20:11:00,65.5,58.5,29.83,WNW,288,0.0,5.0,78,0.00,,,0.54,WeatherCatV1.15B25,2013-06-03 00:11:00,
2013-06-02 20:16:00,64.8,58.1,29.83,WSW,256,0.0,4.0,79,0.00,,,0.54,WeatherCatV1.15B25,2013-06-03 00:16:00,
2013-06-02 20:21:00,64.3,58.0,29.83,SW,225,0.0,0.0,80,0.00,,,0.54,WeatherCatV1.15B25,2013-06-03 00:21:00,
2013-06-02 20:26:00,64.0,57.7,29.84,WNW,291,0.0,0.0,80,0.00,,,0.54,WeatherCatV1.15B25,2013-06-03 00:26:00,
2013-06-02 20:31:00,63.7,57.4,29.84,West,279,1.0,1.0,80,0.00,,,0.54,WeatherCatV1.15B25,2013-06-03 00:31:00,
2013-06-02 20:36:00,63.6,57.7,29.84,West,279,0.0,0.0,81,0.00,,,0.54,WeatherCatV1.15B25,2013-06-03 00:36:00,
2013-06-02 20:41:00,63.4,57.5,29.84,West,279,2.0,2.0,81,0.00,,,0.54,WeatherCatV1.15B25,2013-06-03 00:41:00,
2013-06-02 20:46:00,63.2,57.3,29.84,West,279,0.0,1.0,81,0.00,,,0.54,WeatherCatV1.15B25,2013-06-03 00:46:00,
2013-06-02 20:51:00,63.2,57.6,29.84,West,279,0.0,0.0,82,0.00,,,0.54,WeatherCatV1.15B25,2013-06-03 00:51:00,
2013-06-02 20:56:00,63.1,57.5,29.85,West,279,0.0,0.0,82,0.00,,,0.54,WeatherCatV1.15B25,2013-06-03 00:56:00,
2013-06-02 21:01:00,63.0,57.4,29.85,WSW,244,0.0,0.0,82,0.00,,,0.54,WeatherCatV1.15B25,2013-06-03 01:01:00,
2013-06-02 21:06:00,62.7,57.1,29.85,WSW,244,0.0,0.0,82,0.00,,,0.54,WeatherCatV1.15B25,2013-06-03 01:06:00,
2013-06-02 21:11:00,62.7,57.1,29.85,West,271,0.0,0.0,82,0.00,,,0.54,WeatherCatV1.15B25,2013-06-03 01:11:00,
2013-06-02 21:16:00,62.6,57.0,29.85,NNW,346,2.0,8.0,82,0.00,,,0.54,WeatherCatV1.15B25,2013-06-03 01:16:00,
2013-06-02 21:21:00,62.4,56.5,29.86,NNE,17,2.0,3.0,81,0.00,,,0.54,WeatherCatV1.15B25,2013-06-03 01:21:00,
2013-06-02 21:26:00,62.3,56.4,29.86,North,355,5.0,5.0,81,0.00,,,0.54,WeatherCatV1.15B25,2013-06-03 01:26:00,
2013-06-02 21:31:00,62.2,55.9,29.86,NE,48,3.0,4.0,80,0.00,,,0.54,WeatherCatV1.15B25,2013-06-03 01:31:00,
2013-06-02 21:36:00,62.0,55.8,29.87,WSW,240,0.0,0.0,80,0.00,,,0.54,WeatherCatV1.15B25,2013-06-03 01:36:00,
2013-06-02 21:41:00,61.8,55.6,29.87,North,355,2.0,6.0,80,0.00,,,0.54,WeatherCatV1.15B25,2013-06-03 01:41:00,
2013-06-02 21:46:00,61.7,55.5,29.87,NNW,331,3.0,7.0,80,0.00,,,0.54,WeatherCatV1.15B25,2013-06-03 01:46:00,
2013-06-02 21:51:00,61.5,54.9,29.88,NNW,336,4.0,6.0,79,0.00,,,0.54,WeatherCatV1.15B25,2013-06-03 01:51:00,
2013-06-02 21:56:00,61.5,54.9,29.88,NNE,26,2.0,3.0,79,0.00,,,0.54,WeatherCatV1.15B25,2013-06-03 01:56:00,
2013-06-02 22:01:00,61.4,54.8,29.88,North,5,1.0,3.0,79,0.00,,,0.54,WeatherCatV1.15B25,2013-06-03 02:01:00,
2013-06-02 22:06:00,61.4,54.8,29.89,East,90,0.0,0.0,79,0.00,,,0.54,WeatherCatV1.15B25,2013-06-03 02:06:00,
2013-06-02 22:11:00,61.3,54.7,29.89,North,0,0.0,5.0,79,0.00,,,0.54,WeatherCatV1.15B25,2013-06-03 02:11:00,
2013-06-02 22:16:00,61.2,54.6,29.89,West,276,0.0,0.0,79,0.00,,,0.54,WeatherCatV1.15B25,2013-06-03 02:16:00,
2013-06-02 22:21:00,61.2,54.6,29.89,NNE,24,0.0,1.0,79,0.00,,,0.54,WeatherCatV1.15B25,2013-06-03 02:21:00,
2013-06-02 22:26:00,61.1,54.5,29.89,North,5,3.0,3.0,79,0.00,,,0.54,WeatherCatV1.15B25,2013-06-03 02:26:00,
2013-06-02 22:31:00,61.1,54.5,29.89,NNE,20,3.0,3.0,79,0.00,,,0.54,WeatherCatV1.15B25,2013-06-03 02:31:00,
2013-06-02 22:36:00,61.0,54.4,29.89,NNE,13,2.0,3.0,79,0.00,,,0.54,WeatherCatV1.15B25,2013-06-03 02:36:00,
2013-06-02 22:41:00,60.9,54.0,29.90,NNE,13,0.0,4.0,78,0.00,,,0.54,WeatherCatV1.15B25,2013-06-03 02:41:00,
2013-06-02 22:46:00,60.8,54.2,29.90,West,275,0.0,1.0,79,0.00,,,0.54,WeatherCatV1.15B25,2013-06-03 02:46:00,
2013-06-02 22:51:00,60.6,53.7,29.90,NE,44,0.0,4.0,78,0.00,,,0.54,WeatherCatV1.15B25,2013-06-03 02:51:00,
2013-06-02 22:56:00,60.5,53.6,29.90,North,0,0.0,1.0,78,0.00,,,0.54,WeatherCatV1.15B25,2013-06-03 02:56:00,
2013-06-02 23:01:00,60.4,53.5,29.91,WSW,257,0.0,1.0,78,0.00,,,0.54,WeatherCatV1.15B25,2013-06-03 03:01:00,
2013-06-02 23:06:00,60.3,53.4,29.91,NNW,343,0.0,6.0,78,0.00,,,0.54,WeatherCatV1.15B25,2013-06-03 03:06:00,
2013-06-02 23:11:00,60.1,53.2,29.92,North,5,0.0,0.0,78,0.00,,,0.54,WeatherCatV1.15B25,2013-06-03 03:11:00,
2013-06-02 23:16:00,59.9,53.0,29.92,North,5,0.0,0.0,78,0.00,,,0.54,WeatherCatV1.15B25,2013-06-03 03:16:00,
2013-06-02 23:21:00,59.8,53.3,29.91,SSE,149,0.0,0.0,79,0.00,,,0.54,WeatherCatV1.15B25,2013-06-03 03:21:00,
2013-06-02 23:26:00,59.6,52.7,29.91,SSW,205,0.0,2.0,78,0.00,,,0.54,WeatherCatV1.15B25,2013-06-03 03:26:00,
2013-06-02 23:31:00,59.4,52.5,29.92,West,271,2.0,3.0,78,0.00,,,0.54,WeatherCatV1.15B25,2013-06-03 03:31:00,
2013-06-02 23:36:00,59.3,52.1,29.91,WSW,242,0.0,0.0,77,0.00,,,0.54,WeatherCatV1.15B25,2013-06-03 03:36:00,
2013-06-02 23:41:00,59.3,52.1,29.92,WSW,246,2.0,2.0,77,0.00,,,0.54,WeatherCatV1.15B25,2013-06-03 03:41:00,
2013-06-02 23:46:00,59.2,51.6,29.92,SW,228,2.0,3.0,76,0.00,,,0.54,WeatherCatV1.15B25,2013-06-03 03:46:00,
2013-06-02 23:51:00,59.2,51.6,29.91,NNE,23,0.0,4.0,76,0.00,,,0.54,WeatherCatV1.15B25,2013-06-03 03:51:00,
2013-06-02 23:56:00,59.2,51.3,29.92,NW,325,0.0,5.0,75,0.00,,,0.54,WeatherCatV1.15B25,2013-06-03 03:56:00,